sensor_id;sensor_type;location;lat;lon;timestamp;pressure;altitude;pressure_sealevel;temperature;humidity
72438;BME280;60444;43.534;-5.674;2023-12-20T00:02:16;103348.69;;;12.65;100.00
72438;BME280;60444;43.534;-5.674;2023-12-20T00:04:41;103370.22;;;12.76;100.00
72438;BME280;60444;43.534;-5.674;2023-12-20T00:07:07;103353.09;;;12.72;100.00
72438;BME280;60444;43.534;-5.674;2023-12-20T00:09:32;103382.75;;;12.84;100.00
72438;BME280;60444;43.534;-5.674;2023-12-20T00:11:58;103380.91;;;12.86;100.00
72438;BME280;60444;43.534;-5.674;2023-12-20T00:14:23;103364.91;;;12.68;100.00
72438;BME280;60444;43.534;-5.674;2023-12-20T00:16:49;103387.41;;;12.78;100.00
72438;BME280;60444;43.534;-5.674;2023-12-20T00:19:14;103368.59;;;12.64;100.00
72438;BME280;60444;43.534;-5.674;2023-12-20T00:21:40;103402.78;;;12.77;100.00
72438;BME280;60444;43.534;-5.674;2023-12-20T00:24:05;103406.38;;;12.79;100.00
72438;BME280;60444;43.534;-5.674;2023-12-20T00:26:31;103393.88;;;12.68;100.00
72438;BME280;60444;43.534;-5.674;2023-12-20T00:28:57;103375.00;;;12.62;100.00
72438;BME280;60444;43.534;-5.674;2023-12-20T00:31:22;103397.53;;;12.67;100.00
72438;BME280;60444;43.534;-5.674;2023-12-20T00:33:47;103396.66;;;12.65;100.00
72438;BME280;60444;43.534;-5.674;2023-12-20T00:36:13;103402.03;;;12.68;100.00
72438;BME280;60444;43.534;-5.674;2023-12-20T00:38:38;103394.00;;;12.62;100.00
72438;BME280;60444;43.534;-5.674;2023-12-20T00:41:04;103390.28;;;12.66;100.00
72438;BME280;60444;43.534;-5.674;2023-12-20T00:43:30;103386.69;;;12.65;100.00
72438;BME280;60444;43.534;-5.674;2023-12-20T00:45:55;103398.44;;;12.67;100.00
72438;BME280;60444;43.534;-5.674;2023-12-20T00:48:21;103390.44;;;12.58;100.00
72438;BME280;60444;43.534;-5.674;2023-12-20T00:50:46;103391.22;;;12.65;100.00
72438;BME280;60444;43.534;-5.674;2023-12-20T00:53:12;103402.03;;;12.68;100.00
72438;BME280;60444;43.534;-5.674;2023-12-20T00:55:37;103406.56;;;12.69;100.00
72438;BME280;60444;43.534;-5.674;2023-12-20T00:58:03;103410.16;;;12.71;100.00
72438;BME280;60444;43.534;-5.674;2023-12-20T01:00:29;103405.72;;;12.65;100.00
72438;BME280;60444;43.534;-5.674;2023-12-20T01:02:54;103408.41;;;12.67;100.00
72438;BME280;60444;43.534;-5.674;2023-12-20T01:05:20;103414.72;;;12.69;100.00
72438;BME280;60444;43.534;-5.674;2023-12-20T01:07:48;103420.13;;;12.69;100.00
72438;BME280;60444;43.534;-5.674;2023-12-20T01:10:14;103412.09;;;12.61;100.00
72438;BME280;60444;43.534;-5.674;2023-12-20T01:12:40;103430.94;;;12.72;100.00
72438;BME280;60444;43.534;-5.674;2023-12-20T01:15:05;103421.31;;;12.52;100.00
72438;BME280;60444;43.534;-5.674;2023-12-20T01:17:31;103421.28;;;12.54;100.00
72438;BME280;60444;43.534;-5.674;2023-12-20T01:19:57;103431.22;;;12.53;100.00
72438;BME280;60444;43.534;-5.674;2023-12-20T01:22:23;103422.31;;;12.45;100.00
72438;BME280;60444;43.534;-5.674;2023-12-20T01:24:49;103415.03;;;12.46;100.00
72438;BME280;60444;43.534;-5.674;2023-12-20T01:27:14;103419.63;;;12.42;100.00
72438;BME280;60444;43.534;-5.674;2023-12-20T01:29:40;103446.72;;;12.47;100.00
72438;BME280;60444;43.534;-5.674;2023-12-20T01:32:05;103459.34;;;12.48;100.00
72438;BME280;60444;43.534;-5.674;2023-12-20T01:34:31;103453.16;;;12.40;100.00
72438;BME280;60444;43.534;-5.674;2023-12-20T01:36:57;103444.28;;;12.27;100.00
72438;BME280;60444;43.534;-5.674;2023-12-20T01:39:22;103446.03;;;12.31;100.00
72438;BME280;60444;43.534;-5.674;2023-12-20T01:41:48;103437.06;;;12.26;100.00
72438;BME280;60444;43.534;-5.674;2023-12-20T01:44:13;103437.06;;;12.26;100.00
72438;BME280;60444;43.534;-5.674;2023-12-20T01:46:39;103447.00;;;12.29;100.00
72438;BME280;60444;43.534;-5.674;2023-12-20T01:49:05;103431.69;;;12.20;100.00
72438;BME280;60444;43.534;-5.674;2023-12-20T01:51:30;103453.28;;;12.32;100.00
72438;BME280;60444;43.534;-5.674;2023-12-20T01:53:57;103454.16;;;12.31;100.00
72438;BME280;60444;43.534;-5.674;2023-12-20T01:56:23;103442.50;;;12.25;100.00
72438;BME280;60444;43.534;-5.674;2023-12-20T01:58:49;103431.69;;;12.20;100.00
72438;BME280;60444;43.534;-5.674;2023-12-20T02:01:15;103437.00;;;12.29;100.00
72438;BME280;60444;43.534;-5.674;2023-12-20T02:03:41;103457.72;;;12.38;100.00
72438;BME280;60444;43.534;-5.674;2023-12-20T02:06:08;103454.97;;;12.39;100.00
72438;BME280;60444;43.534;-5.674;2023-12-20T02:08:34;103444.19;;;12.33;100.00
72438;BME280;60444;43.534;-5.674;2023-12-20T02:11:01;103454.94;;;12.41;100.00
72438;BME280;60444;43.534;-5.674;2023-12-20T02:13:26;103448.59;;;12.40;100.00
72438;BME280;60444;43.534;-5.674;2023-12-20T02:15:52;103439.63;;;12.35;100.00
72438;BME280;60444;43.534;-5.674;2023-12-20T02:18:18;103447.69;;;12.43;100.00
72438;BME280;60444;43.534;-5.674;2023-12-20T02:20:43;103462.03;;;12.49;100.00
72438;BME280;60444;43.534;-5.674;2023-12-20T02:23:09;103443.28;;;12.34;100.00
72438;BME280;60444;43.534;-5.674;2023-12-20T02:25:35;103468.47;;;12.45;100.00
72438;BME280;60444;43.534;-5.674;2023-12-20T02:28:01;103483.75;;;12.51;100.00
72438;BME280;60444;43.534;-5.674;2023-12-20T02:30:27;103462.28;;;12.34;100.00
72438;BME280;60444;43.534;-5.674;2023-12-20T02:32:53;103481.22;;;12.39;100.00
72438;BME280;60444;43.534;-5.674;2023-12-20T02:35:19;103489.38;;;12.37;100.00
72438;BME280;60444;43.534;-5.674;2023-12-20T02:37:44;103474.97;;;12.32;100.00
72438;BME280;60444;43.534;-5.674;2023-12-20T02:40:10;103480.31;;;12.37;100.00
72438;BME280;60444;43.534;-5.674;2023-12-20T02:42:36;103474.13;;;12.29;100.00
72438;BME280;60444;43.534;-5.674;2023-12-20T02:45:01;103487.59;;;12.36;100.00
72438;BME280;60444;43.534;-5.674;2023-12-20T02:47:27;103483.19;;;12.26;100.00
72438;BME280;60444;43.534;-5.674;2023-12-20T02:49:54;103484.03;;;12.31;100.00
72438;BME280;60444;43.534;-5.674;2023-12-20T02:52:20;103505.66;;;12.37;100.00
72438;BME280;60444;43.534;-5.674;2023-12-20T02:54:45;103496.69;;;12.32;100.00
72438;BME280;60444;43.534;-5.674;2023-12-20T02:57:11;103503.00;;;12.34;100.00
72438;BME280;60444;43.534;-5.674;2023-12-20T02:59:36;103501.28;;;12.27;100.00
72438;BME280;60444;43.534;-5.674;2023-12-20T03:02:02;103499.59;;;12.17;100.00
72438;BME280;60444;43.534;-5.674;2023-12-20T03:04:27;103511.22;;;12.27;100.00
72438;BME280;60444;43.534;-5.674;2023-12-20T03:06:53;103506.84;;;12.18;100.00
72438;BME280;60444;43.534;-5.674;2023-12-20T03:09:18;103511.41;;;12.13;100.00
72438;BME280;60444;43.534;-5.674;2023-12-20T03:11:44;103523.13;;;12.18;100.00
72438;BME280;60444;43.534;-5.674;2023-12-20T03:14:09;103496.94;;;12.11;100.00
72438;BME280;60444;43.534;-5.674;2023-12-20T03:16:35;103514.00;;;12.21;100.00
72438;BME280;60444;43.534;-5.674;2023-12-20T03:19:00;103514.88;;;12.24;100.00
72438;BME280;60444;43.534;-5.674;2023-12-20T03:21:26;103500.53;;;12.16;100.00
72438;BME280;60444;43.534;-5.674;2023-12-20T03:23:51;103529.31;;;12.26;100.00
72438;BME280;60444;43.534;-5.674;2023-12-20T03:26:17;103507.78;;;12.11;100.00
72438;BME280;60444;43.534;-5.674;2023-12-20T03:28:42;103508.69;;;12.13;100.00
72438;BME280;60444;43.534;-5.674;2023-12-20T03:31:09;103528.66;;;12.09;100.00
72438;BME280;60444;43.534;-5.674;2023-12-20T03:33:36;103527.72;;;12.10;100.00
72438;BME280;60444;43.534;-5.674;2023-12-20T03:36:02;103521.47;;;12.04;100.00
72438;BME280;60444;43.534;-5.674;2023-12-20T03:38:27;103498.94;;;11.97;100.00
72438;BME280;60444;43.534;-5.674;2023-12-20T03:40:53;103510.66;;;11.99;100.00
72438;BME280;60444;43.534;-5.674;2023-12-20T03:43:18;103510.69;;;11.98;100.00
72438;BME280;60444;43.534;-5.674;2023-12-20T03:45:44;103502.56;;;11.96;100.00
72438;BME280;60444;43.534;-5.674;2023-12-20T03:48:09;103492.72;;;11.89;100.00
72438;BME280;60444;43.534;-5.674;2023-12-20T03:50:35;103499.91;;;11.90;100.00
72438;BME280;60444;43.534;-5.674;2023-12-20T03:53:01;103508.97;;;11.91;100.00
72438;BME280;60444;43.534;-5.674;2023-12-20T03:55:26;103511.63;;;11.94;100.00
72438;BME280;60444;43.534;-5.674;2023-12-20T03:57:52;103495.41;;;11.91;100.00
72438;BME280;60444;43.534;-5.674;2023-12-20T04:00:18;103518.81;;;11.99;100.00
72438;BME280;60444;43.534;-5.674;2023-12-20T04:02:43;103504.47;;;11.88;100.00
72438;BME280;60444;43.534;-5.674;2023-12-20T04:05:09;103506.28;;;11.89;100.00
72438;BME280;60444;43.534;-5.674;2023-12-20T04:07:36;103516.16;;;11.93;100.00
72438;BME280;60444;43.534;-5.674;2023-12-20T04:10:02;103498.19;;;11.85;100.00
72438;BME280;60444;43.534;-5.674;2023-12-20T04:12:29;103519.75;;;11.97;100.00
72438;BME280;60444;43.534;-5.674;2023-12-20T04:14:54;103526.03;;;12.00;100.00
72438;BME280;60444;43.534;-5.674;2023-12-20T04:17:20;103523.31;;;11.99;100.00
72438;BME280;60444;43.534;-5.674;2023-12-20T04:19:48;103503.59;;;11.88;100.00
72438;BME280;60444;43.534;-5.674;2023-12-20T04:22:17;103508.03;;;11.95;100.00
72438;BME280;60444;43.534;-5.674;2023-12-20T04:24:42;103507.19;;;11.87;100.00
72438;BME280;60444;43.534;-5.674;2023-12-20T04:27:08;103501.81;;;11.84;100.00
72438;BME280;60444;43.534;-5.674;2023-12-20T04:29:34;103528.91;;;11.85;100.00
72438;BME280;60444;43.534;-5.674;2023-12-20T04:31:59;103507.28;;;11.79;100.00
72438;BME280;60444;43.534;-5.674;2023-12-20T04:34:25;103516.28;;;11.83;100.00
72438;BME280;60444;43.534;-5.674;2023-12-20T04:36:51;103508.31;;;11.69;100.00
72438;BME280;60444;43.534;-5.674;2023-12-20T04:39:16;103501.00;;;11.74;100.00
72438;BME280;60444;43.534;-5.674;2023-12-20T04:41:42;103510.03;;;11.76;100.00
72438;BME280;60444;43.534;-5.674;2023-12-20T04:44:07;103528.94;;;11.81;100.00
72438;BME280;60444;43.534;-5.674;2023-12-20T04:46:33;103526.25;;;11.82;100.00
72438;BME280;60444;43.534;-5.674;2023-12-20T04:48:58;103510.84;;;11.83;100.00
72438;BME280;60444;43.534;-5.674;2023-12-20T04:51:24;103511.81;;;11.79;100.00
72438;BME280;60444;43.534;-5.674;2023-12-20T04:53:49;103531.69;;;11.82;100.00
72438;BME280;60444;43.534;-5.674;2023-12-20T04:56:15;103510.91;;;11.78;100.00
72438;BME280;60444;43.534;-5.674;2023-12-20T04:58:42;103518.13;;;11.82;100.00
72438;BME280;60444;43.534;-5.674;2023-12-20T05:01:08;103496.56;;;11.69;100.00
72438;BME280;60444;43.534;-5.674;2023-12-20T05:03:34;103539.75;;;11.87;100.00
72438;BME280;60444;43.534;-5.674;2023-12-20T05:05:59;103516.41;;;11.72;100.00
72438;BME280;60444;43.534;-5.674;2023-12-20T05:08:25;103519.94;;;11.77;100.00
72438;BME280;60444;43.534;-5.674;2023-12-20T05:10:52;103528.03;;;11.83;100.00
72438;BME280;60444;43.534;-5.674;2023-12-20T05:13:19;103516.38;;;11.74;100.00
72438;BME280;60444;43.534;-5.674;2023-12-20T05:15:44;103524.47;;;11.78;100.00
72438;BME280;60444;43.534;-5.674;2023-12-20T05:18:10;103522.72;;;11.74;100.00
72438;BME280;60444;43.534;-5.674;2023-12-20T05:20:35;103536.22;;;11.77;100.00
72438;BME280;60444;43.534;-5.674;2023-12-20T05:23:01;103543.34;;;11.89;100.00
72438;BME280;60444;43.534;-5.674;2023-12-20T05:25:26;103525.50;;;11.67;100.00
72438;BME280;60444;43.534;-5.674;2023-12-20T05:27:52;103529.09;;;11.63;100.00
72438;BME280;60444;43.534;-5.674;2023-12-20T05:30:18;103558.78;;;11.82;100.00
72438;BME280;60444;43.534;-5.674;2023-12-20T05:32:44;103531.78;;;11.73;100.00
72438;BME280;60444;43.534;-5.674;2023-12-20T05:35:09;103554.31;;;11.77;100.00
72438;BME280;60444;43.534;-5.674;2023-12-20T05:37:35;103556.16;;;11.72;100.00
72438;BME280;60444;43.534;-5.674;2023-12-20T05:40:00;103570.56;;;11.80;100.00
72438;BME280;60444;43.534;-5.674;2023-12-20T05:42:26;103548.06;;;11.63;100.00
72438;BME280;60444;43.534;-5.674;2023-12-20T05:44:51;103556.22;;;11.61;100.00
72438;BME280;60444;43.534;-5.674;2023-12-20T05:47:17;103567.94;;;11.71;100.00
72438;BME280;60444;43.534;-5.674;2023-12-20T05:49:45;103590.44;;;11.77;100.00
72438;BME280;60444;43.534;-5.674;2023-12-20T05:52:10;103595.94;;;11.73;100.00
72438;BME280;60444;43.534;-5.674;2023-12-20T05:54:36;103582.34;;;11.74;100.00
72438;BME280;60444;43.534;-5.674;2023-12-20T05:57:01;103582.34;;;11.79;100.00
72438;BME280;60444;43.534;-5.674;2023-12-20T05:59:27;103595.81;;;11.88;100.00
72438;BME280;60444;43.534;-5.674;2023-12-20T06:01:53;103597.66;;;11.81;100.00
72438;BME280;60444;43.534;-5.674;2023-12-20T06:04:18;103603.06;;;11.83;100.00
72438;BME280;60444;43.534;-5.674;2023-12-20T06:06:44;103591.44;;;11.73;100.00
72438;BME280;60444;43.534;-5.674;2023-12-20T06:09:10;103601.31;;;11.76;100.00
72438;BME280;60444;43.534;-5.674;2023-12-20T06:11:36;103605.78;;;11.81;100.00
72438;BME280;60444;43.534;-5.674;2023-12-20T06:14:01;103620.28;;;11.80;100.00
72438;BME280;60444;43.534;-5.674;2023-12-20T06:16:27;103607.59;;;11.82;100.00
72438;BME280;60444;43.534;-5.674;2023-12-20T06:18:52;103606.72;;;11.80;100.00
72438;BME280;60444;43.534;-5.674;2023-12-20T06:21:18;103596.78;;;11.78;100.00
72438;BME280;60444;43.534;-5.674;2023-12-20T06:23:44;103609.38;;;11.83;100.00
72438;BME280;60444;43.534;-5.674;2023-12-20T06:26:09;103623.75;;;11.94;100.00
72438;BME280;60444;43.534;-5.674;2023-12-20T06:28:35;103624.63;;;11.96;100.00
72438;BME280;60444;43.534;-5.674;2023-12-20T06:31:00;103629.22;;;11.88;100.00
72438;BME280;60444;43.534;-5.674;2023-12-20T06:33:26;103632.81;;;11.95;100.00
72438;BME280;60444;43.534;-5.674;2023-12-20T06:35:52;103631.97;;;11.85;100.00
72438;BME280;60444;43.534;-5.674;2023-12-20T06:38:18;103621.16;;;11.82;100.00
72438;BME280;60444;43.534;-5.674;2023-12-20T06:40:44;103650.03;;;11.86;100.00
72438;BME280;60444;43.534;-5.674;2023-12-20T06:43:10;103622.09;;;11.78;100.00
72438;BME280;60444;43.534;-5.674;2023-12-20T06:45:35;103654.47;;;11.93;100.00
72438;BME280;60444;43.534;-5.674;2023-12-20T06:48:01;103624.72;;;11.84;100.00
72438;BME280;60444;43.534;-5.674;2023-12-20T06:50:26;103658.09;;;11.97;100.00
72438;BME280;60444;43.534;-5.674;2023-12-20T06:52:52;103656.31;;;11.90;100.00
72438;BME280;60444;43.534;-5.674;2023-12-20T06:55:21;103664.44;;;11.94;100.00
72438;BME280;60444;43.534;-5.674;2023-12-20T06:57:47;103641.97;;;11.80;100.00
72438;BME280;60444;43.534;-5.674;2023-12-20T07:00:12;103654.63;;;11.78;100.00
72438;BME280;60444;43.534;-5.674;2023-12-20T07:02:38;103677.13;;;11.92;100.00
72438;BME280;60444;43.534;-5.674;2023-12-20T07:05:04;103668.16;;;11.81;100.00
72438;BME280;60444;43.534;-5.674;2023-12-20T07:07:30;103687.06;;;11.90;100.00
72438;BME280;60444;43.534;-5.674;2023-12-20T07:09:55;103664.59;;;11.76;100.00
72438;BME280;60444;43.534;-5.674;2023-12-20T07:12:21;103688.00;;;11.86;100.00
72438;BME280;60444;43.534;-5.674;2023-12-20T07:14:46;103697.88;;;11.93;100.00
72438;BME280;60444;43.534;-5.674;2023-12-20T07:17:12;103690.72;;;11.86;100.00
72438;BME280;60444;43.534;-5.674;2023-12-20T07:19:40;103683.47;;;11.91;100.00
72438;BME280;60444;43.534;-5.674;2023-12-20T07:22:06;103712.25;;;12.04;100.00
72438;BME280;60444;43.534;-5.674;2023-12-20T07:24:33;103715.84;;;12.08;100.00
72438;BME280;60444;43.534;-5.674;2023-12-20T07:27:01;103708.66;;;12.02;100.00
72438;BME280;60444;43.534;-5.674;2023-12-20T07:29:27;103705.97;;;11.99;100.00
72438;BME280;60444;43.534;-5.674;2023-12-20T07:31:53;103716.84;;;11.99;100.00
72438;BME280;60444;43.534;-5.674;2023-12-20T07:34:20;103690.75;;;11.83;100.00
72438;BME280;60444;43.534;-5.674;2023-12-20T07:36:45;103704.25;;;11.91;100.00
72438;BME280;60444;43.534;-5.674;2023-12-20T07:39:11;103707.84;;;11.93;100.00
72438;BME280;60444;43.534;-5.674;2023-12-20T07:41:36;103713.22;;;11.97;100.00
72438;BME280;60444;43.534;-5.674;2023-12-20T07:44:03;103723.16;;;12.01;100.00
72438;BME280;60444;43.534;-5.674;2023-12-20T07:46:29;103711.44;;;11.96;100.00
72438;BME280;60444;43.534;-5.674;2023-12-20T07:48:54;103713.25;;;11.96;100.00
72438;BME280;60444;43.534;-5.674;2023-12-20T07:51:20;103720.47;;;11.95;100.00
72438;BME280;60444;43.534;-5.674;2023-12-20T07:53:46;103729.44;;;12.05;100.00
72438;BME280;60444;43.534;-5.674;2023-12-20T07:56:18;103697.06;;;11.87;100.00
72438;BME280;60444;43.534;-5.674;2023-12-20T07:58:45;103735.84;;;11.96;100.00
72438;BME280;60444;43.534;-5.674;2023-12-20T08:01:11;103744.00;;;11.92;100.00
72438;BME280;60444;43.534;-5.674;2023-12-20T08:03:37;103741.31;;;11.90;100.00
72438;BME280;60444;43.534;-5.674;2023-12-20T08:06:03;103734.16;;;11.83;100.00
72438;BME280;60444;43.534;-5.674;2023-12-20T08:08:29;103725.19;;;11.75;100.00
72438;BME280;60444;43.534;-5.674;2023-12-20T08:10:55;103713.44;;;11.70;100.00
72438;BME280;60444;43.534;-5.674;2023-12-20T08:13:23;103721.53;;;11.76;100.00
72438;BME280;60444;43.534;-5.674;2023-12-20T08:15:51;103745.00;;;11.82;100.00
72438;BME280;60444;43.534;-5.674;2023-12-20T08:18:17;103725.25;;;11.66;100.00
72438;BME280;60444;43.534;-5.674;2023-12-20T08:20:42;103729.72;;;11.69;100.00
72438;BME280;60444;43.534;-5.674;2023-12-20T08:23:08;103751.31;;;11.85;100.00
72438;BME280;60444;43.534;-5.674;2023-12-20T08:25:33;103755.84;;;11.83;100.00
72438;BME280;60444;43.534;-5.674;2023-12-20T08:27:59;103732.44;;;11.73;100.00
72438;BME280;60444;43.534;-5.674;2023-12-20T08:30:24;103730.66;;;11.60;100.00
72438;BME280;60444;43.534;-5.674;2023-12-20T08:32:50;103752.38;;;11.66;100.00
72438;BME280;60444;43.534;-5.674;2023-12-20T08:35:16;103767.69;;;11.73;100.00
72438;BME280;60444;43.534;-5.674;2023-12-20T08:37:43;103783.91;;;11.76;100.00
72438;BME280;60444;43.534;-5.674;2023-12-20T08:40:09;103782.09;;;11.78;100.00
72438;BME280;60444;43.534;-5.674;2023-12-20T08:42:34;103764.97;;;11.70;100.00
72438;BME280;60444;43.534;-5.674;2023-12-20T08:45:00;103773.09;;;11.75;100.00
72438;BME280;60444;43.534;-5.674;2023-12-20T08:47:25;103760.44;;;11.71;100.00
72438;BME280;60444;43.534;-5.674;2023-12-20T08:49:52;103786.56;;;11.85;100.00
72438;BME280;60444;43.534;-5.674;2023-12-20T08:52:22;103764.03;;;11.74;100.00
72438;BME280;60444;43.534;-5.674;2023-12-20T08:54:48;103771.28;;;11.77;100.00
72438;BME280;60444;43.534;-5.674;2023-12-20T08:57:14;103769.41;;;11.83;100.00
72438;BME280;60444;43.534;-5.674;2023-12-20T08:59:39;103783.84;;;11.87;100.00
72438;BME280;60444;43.534;-5.674;2023-12-20T09:02:05;103812.69;;;12.01;100.00
72438;BME280;60444;43.534;-5.674;2023-12-20T09:04:30;103812.69;;;11.95;100.00
72438;BME280;60444;43.534;-5.674;2023-12-20T09:06:56;103799.22;;;11.89;100.00
72438;BME280;60444;43.534;-5.674;2023-12-20T09:09:21;103810.00;;;11.94;100.00
72438;BME280;60444;43.534;-5.674;2023-12-20T09:11:47;103814.53;;;11.96;100.00
72438;BME280;60444;43.534;-5.674;2023-12-20T09:14:15;103809.13;;;11.95;100.00
72438;BME280;60444;43.534;-5.674;2023-12-20T09:16:40;103812.72;;;11.97;100.00
72438;BME280;60444;43.534;-5.674;2023-12-20T09:19:06;103828.91;;;12.07;100.00
72438;BME280;60444;43.534;-5.674;2023-12-20T09:21:32;103838.88;;;12.05;100.00
72438;BME280;60444;43.534;-5.674;2023-12-20T09:23:57;103810.91;;;11.94;100.00
72438;BME280;60444;43.534;-5.674;2023-12-20T09:26:23;103836.22;;;11.96;100.00
72438;BME280;60444;43.534;-5.674;2023-12-20T09:28:48;103850.69;;;11.95;100.00
72438;BME280;60444;43.534;-5.674;2023-12-20T09:31:14;103845.31;;;11.89;100.00
72438;BME280;60444;43.534;-5.674;2023-12-20T09:33:39;103824.56;;;11.82;100.00
72438;BME280;60444;43.534;-5.674;2023-12-20T09:36:05;103824.53;;;11.87;100.00
72438;BME280;60444;43.534;-5.674;2023-12-20T09:38:30;103861.56;;;11.92;100.00
72438;BME280;60444;43.534;-5.674;2023-12-20T09:40:56;103853.47;;;11.83;100.00
72438;BME280;60444;43.534;-5.674;2023-12-20T09:43:24;103859.81;;;11.81;100.00
72438;BME280;60444;43.534;-5.674;2023-12-20T09:45:53;103866.13;;;11.86;100.00
72438;BME280;60444;43.534;-5.674;2023-12-20T09:48:19;103853.44;;;11.86;100.00
72438;BME280;60444;43.534;-5.674;2023-12-20T09:50:45;103856.16;;;11.91;100.00
72438;BME280;60444;43.534;-5.674;2023-12-20T09:53:15;103859.72;;;11.96;100.00
72438;BME280;60444;43.534;-5.674;2023-12-20T09:55:41;103845.28;;;11.94;100.00
72438;BME280;60444;43.534;-5.674;2023-12-20T09:58:07;103842.56;;;11.92;100.00
72438;BME280;60444;43.534;-5.674;2023-12-20T10:00:36;103834.47;;;11.89;100.00
72438;BME280;60444;43.534;-5.674;2023-12-20T10:03:06;103844.38;;;11.96;100.00
72438;BME280;60444;43.534;-5.674;2023-12-20T10:05:33;103839.88;;;11.92;100.00
72438;BME280;60444;43.534;-5.674;2023-12-20T10:07:59;103846.16;;;11.97;100.00
72438;BME280;60444;43.534;-5.674;2023-12-20T10:10:25;103847.00;;;12.02;100.00
72438;BME280;60444;43.534;-5.674;2023-12-20T10:13:10;103859.66;;;12.08;100.00
72438;BME280;60444;43.534;-5.674;2023-12-20T10:15:36;103817.28;;;11.89;100.00
72438;BME280;60444;43.534;-5.674;2023-12-20T10:18:02;103859.63;;;12.14;100.00
72438;BME280;60444;43.534;-5.674;2023-12-20T10:20:29;103844.25;;;12.11;100.00
72438;BME280;60444;43.534;-5.674;2023-12-20T10:22:56;103850.50;;;12.21;100.00
72438;BME280;60444;43.534;-5.674;2023-12-20T10:25:23;103830.69;;;12.11;100.00
72438;BME280;60444;43.534;-5.674;2023-12-20T10:27:50;103845.09;;;12.24;100.00
72438;BME280;60444;43.534;-5.674;2023-12-20T10:30:15;103845.06;;;12.22;100.00
72438;BME280;60444;43.534;-5.674;2023-12-20T10:32:41;103852.25;;;12.31;100.00
72438;BME280;60444;43.534;-5.674;2023-12-20T10:35:08;103829.69;;;12.24;100.00
72438;BME280;60444;43.534;-5.674;2023-12-20T10:37:36;103845.91;;;12.32;100.00
72438;BME280;60444;43.534;-5.674;2023-12-20T10:40:04;103851.31;;;12.38;100.00
72438;BME280;60444;43.534;-5.674;2023-12-20T10:42:31;103845.88;;;12.38;100.00
72438;BME280;60444;43.534;-5.674;2023-12-20T10:44:59;103809.81;;;12.21;100.00
72438;BME280;60444;43.534;-5.674;2023-12-20T10:47:25;103826.00;;;12.34;100.00
72438;BME280;60444;43.534;-5.674;2023-12-20T10:49:52;103839.47;;;12.42;100.00
72438;BME280;60444;43.534;-5.674;2023-12-20T10:52:19;103814.19;;;12.37;100.00
72438;BME280;60444;43.534;-5.674;2023-12-20T10:54:45;103830.41;;;12.49;100.00
72438;BME280;60444;43.534;-5.674;2023-12-20T10:57:11;103838.53;;;12.50;100.00
72438;BME280;60444;43.534;-5.674;2023-12-20T10:59:37;103826.78;;;12.47;100.00
72438;BME280;60444;43.534;-5.674;2023-12-20T11:02:04;103843.00;;;12.58;100.00
72438;BME280;60444;43.534;-5.674;2023-12-20T11:04:40;103816.84;;;12.46;100.00
72438;BME280;60444;43.534;-5.674;2023-12-20T11:07:21;103825.81;;;12.54;100.00
72438;BME280;60444;43.534;-5.674;2023-12-20T11:09:59;103840.22;;;12.64;100.00
72438;BME280;60444;43.534;-5.674;2023-12-20T11:12:35;103836.59;;;12.65;100.00
72438;BME280;60444;43.534;-5.674;2023-12-20T11:15:04;103788.84;;;12.39;100.00
72438;BME280;60444;43.534;-5.674;2023-12-20T11:17:31;103805.84;;;12.61;100.00
72438;BME280;60444;43.534;-5.674;2023-12-20T11:22:27;103820.22;;;12.69;100.00
72438;BME280;60444;43.534;-5.674;2023-12-20T11:25:02;103814.84;;;12.65;100.00
72438;BME280;60444;43.534;-5.674;2023-12-20T11:27:28;103799.47;;;12.62;100.00
72438;BME280;60444;43.534;-5.674;2023-12-20T11:29:56;103804.78;;;12.76;100.00
72438;BME280;60444;43.534;-5.674;2023-12-20T11:34:51;103813.84;;;12.76;100.00
72438;BME280;60444;43.534;-5.674;2023-12-20T11:37:20;103799.44;;;12.68;100.00
72438;BME280;60444;43.534;-5.674;2023-12-20T11:40:15;103812.94;;;12.76;100.00
72438;BME280;60444;43.534;-5.674;2023-12-20T11:42:58;103810.28;;;12.70;100.00
72438;BME280;60444;43.534;-5.674;2023-12-20T11:45:24;103788.69;;;12.58;100.00
72438;BME280;60444;43.534;-5.674;2023-12-20T11:47:51;103795.84;;;12.65;100.00
72438;BME280;60444;43.534;-5.674;2023-12-20T11:50:20;103798.56;;;12.65;100.00
72438;BME280;60444;43.534;-5.674;2023-12-20T11:52:47;103795.88;;;12.60;100.00
72438;BME280;60444;43.534;-5.674;2023-12-20T11:55:12;103767.91;;;12.52;100.00
72438;BME280;60444;43.534;-5.674;2023-12-20T11:57:38;103786.91;;;12.53;100.00
72438;BME280;60444;43.534;-5.674;2023-12-20T12:00:04;103764.38;;;12.42;100.00
72438;BME280;60444;43.534;-5.674;2023-12-20T12:02:30;103792.28;;;12.57;100.00
72438;BME280;60444;43.534;-5.674;2023-12-20T12:04:56;103788.72;;;12.53;100.00
72438;BME280;60444;43.534;-5.674;2023-12-20T12:07:24;103773.31;;;12.53;100.00
72438;BME280;60444;43.534;-5.674;2023-12-20T12:09:49;103764.34;;;12.48;100.00
72438;BME280;60444;43.534;-5.674;2023-12-20T12:12:15;103767.03;;;12.50;100.00
72438;BME280;60444;43.534;-5.674;2023-12-20T12:14:41;103742.63;;;12.48;100.00
72438;BME280;60444;43.534;-5.674;2023-12-20T12:17:13;103750.69;;;12.53;100.00
72438;BME280;60444;43.534;-5.674;2023-12-20T12:19:40;103736.22;;;12.54;100.00
72438;BME280;60444;43.534;-5.674;2023-12-20T12:22:06;103735.28;;;12.57;100.00
72438;BME280;60444;43.534;-5.674;2023-12-20T12:24:38;103725.38;;;12.51;100.00
72438;BME280;60444;43.534;-5.674;2023-12-20T12:27:06;103702.81;;;12.44;100.00
72438;BME280;60444;43.534;-5.674;2023-12-20T12:29:32;103711.81;;;12.52;100.00
72438;BME280;60444;43.534;-5.674;2023-12-20T12:31:58;103729.75;;;12.64;100.00